Time;durP1;ratioP1;P1;durP2;ratioP2;P2;SDS_P1;SDS_P2;PMS_P1;PMS_P2;Temp;Humidity;BMP_temperature;BMP_pressure;BME280_temperature;BME280_humidity;BME280_pressure;Samples;Min_cycle;Max_cycle;Signal;HPM_P1;HPM_P2
2023/06/21 00:02:03;;;;;;;;;;;;;;;;;;136991;1273;22543;-86
2023/06/21 00:05:05;;;;;;;;;;;;;;;;;;137566;1273;22510;-84
2023/06/21 00:08:06;;;;;;;;;;;;;;;;;;137007;1273;22976;-84
2023/06/21 00:11:07;;;;;;;;;;;;;;;;;;136870;1273;22630;-84
2023/06/21 00:14:08;;;;;;;;;;;;;;;;;;137441;1273;22502;-83
2023/06/21 00:17:12;;;;;;;;;;;;;;;;;;136974;1273;22537;-85
2023/06/21 00:20:13;;;;;;;;;;;;;;;;;;136790;1273;22579;-84
2023/06/21 00:23:18;;;;;;;;;;;;;;;;;;137093;1273;22479;-84
2023/06/21 00:26:19;;;;;;;;;;;;;;;;;;137236;1270;22486;-84
2023/06/21 00:29:22;;;;;;;;;;;;;;;;;;136626;1273;25389;-84
2023/06/21 00:32:23;;;;;;;;;;;;;;;;;;137142;1273;22540;-86
2023/06/21 00:35:24;;;;;;;;;;;;;;;;;;137266;1273;22543;-86
2023/06/21 00:38:25;;;;;;;;;;;;;;;;;;136802;1273;22578;-82
2023/06/21 00:41:26;;;;;;;;;;;;;;;;;;137116;1270;25909;-84
2023/06/21 00:44:27;;;;;;;;;;;;;;;;;;137286;1273;22534;-83
2023/06/21 00:47:29;;;;;;;;;;;;;;;;;;136962;1273;22537;-83
2023/06/21 00:50:31;;;;;;;;;;;;;;;;;;136895;1273;25475;-82
2023/06/21 00:53:32;;;;;;;;;;;;;;;;;;137550;1273;22503;-84
2023/06/21 00:56:33;;;;;;;;;;;;;;;;;;136869;1273;22508;-84
2023/06/21 00:59:35;;;;;;;;;;;;;;;;;;136925;1273;22596;-84
2023/06/21 01:02:36;;;;;;;;;;;;;;;;;;136841;1273;22567;-83
2023/06/21 01:05:38;;;;;;;;;;;;;;;;;;136769;1273;22931;-84
2023/06/21 01:08:39;;;;;;;;;;;;;;;;;;136756;1273;25227;-82
2023/06/21 01:11:40;;;;;;;;;;;;;;;;;;137538;1273;22545;-83
2023/06/21 01:14:41;;;;;;;;;;;;;;;;;;136875;1273;22556;-82
2023/06/21 01:17:42;;;;;;;;;;;;;;;;;;136957;1273;22949;-83
2023/06/21 01:20:44;;;;;;;;;;;;;;;;;;137301;1273;22545;-83
2023/06/21 01:23:45;;;;;;;;;;;;;;;;;;136867;1273;23057;-83
2023/06/21 01:26:46;;;;;;;;;;;;;;;;;;136888;1273;23020;-82
2023/06/21 01:29:47;;;;;;;;;;;;;;;;;;137224;1273;22502;-84
2023/06/21 01:32:48;;;;;;;;;;;;;;;;;;137010;1273;22531;-83
2023/06/21 01:35:52;;;;;;;;;;;;;;;;;;136837;1273;22503;-83
2023/06/21 01:38:53;;;;;;;;;;;;;;;;;;137142;1273;22531;-83
2023/06/21 01:41:54;;;;;;;;;;;;;;;;;;136935;1273;207933;-84
2023/06/21 01:44:55;;;;;;;;;;;;;;;;;;136841;1273;22553;-83
2023/06/21 01:47:56;;;;;;;;;;;;;;;;;;137071;1273;24173;-83
2023/06/21 01:50:57;;;;;;;;;;;;;;;;;;137351;1273;22909;-84
2023/06/21 01:53:58;;;;;;;;;;;;;;;;;;136656;1273;22549;-83
2023/06/21 01:56:59;;;;;;;;;;;;;;;;;;136647;1273;22521;-85
2023/06/21 02:00:01;;;;;;;;;;;;;;;;;;137153;1273;22508;-85
2023/06/21 02:03:02;;;;;;;;;;;;;;;;;;136703;1273;22530;-83
2023/06/21 02:06:05;;;;;;;;;;;;;;;;;;136850;1273;22564;-84
2023/06/21 02:09:06;;;;;;;;;;;;;;;;;;137134;1273;22548;-83
2023/06/21 02:12:07;;;;;;;;;;;;;;;;;;136714;1267;22526;-83
2023/06/21 02:15:08;;;;;;;;;;;;;;;;;;136839;1273;22470;-84
2023/06/21 02:18:09;;;;;;;;;;;;;;;;;;137353;1273;22986;-83
2023/06/21 02:21:11;;;;;;;;;;;;;;;;;;136890;1273;22509;-82
2023/06/21 02:24:12;;;;;;;;;;;;;;;;;;136909;1273;22541;-83
2023/06/21 02:27:13;;;;;;;;;;;;;;;;;;137353;1273;22508;-83
2023/06/21 02:30:14;;;;;;;;;;;;;;;;;;136980;1273;22506;-84
2023/06/21 02:33:15;;;;;;;;;;;;;;;;;;136859;1265;22516;-83
2023/06/21 02:36:16;;;;;;;;;;;;;;;;;;137326;1273;24346;-83
2023/06/21 02:39:17;;;;;;;;;;;;;;;;;;136996;1273;22503;-84
2023/06/21 02:42:19;;;;;;;;;;;;;;;;;;136857;1273;22579;-83
2023/06/21 02:45:20;;;;;;;;;;;;;;;;;;137091;1273;22535;-83
2023/06/21 02:48:21;;;;;;;;;;;;;;;;;;136981;1273;23030;-82
2023/06/21 02:51:24;;;;;;;;;;;;;;;;;;136885;1273;22456;-84
2023/06/21 02:54:26;;;;;;;;;;;;;;;;;;137169;1273;22509;-86
2023/06/21 02:57:27;;;;;;;;;;;;;;;;;;136844;1273;22453;-86
2023/06/21 03:00:31;;;;;;;;;;;;;;;;;;136735;1273;22545;-84
2023/06/21 03:03:32;;;;;;;;;;;;;;;;;;137068;1273;25237;-85
2023/06/21 03:06:33;;;;;;;;;;;;;;;;;;137093;1273;23036;-86
2023/06/21 03:09:34;;;;;;;;;;;;;;;;;;136906;1273;22493;-83
2023/06/21 03:12:36;;;;;;;;;;;;;;;;;;137107;1273;22521;-86
2023/06/21 03:15:37;;;;;;;;;;;;;;;;;;137038;1273;22577;-83
2023/06/21 03:18:38;;;;;;;;;;;;;;;;;;136948;1273;22528;-86
2023/06/21 03:21:39;;;;;;;;;;;;;;;;;;136981;1273;22951;-83
2023/06/21 03:24:40;;;;;;;;;;;;;;;;;;137245;1273;22528;-84
2023/06/21 03:27:41;;;;;;;;;;;;;;;;;;136901;1273;22583;-85
2023/06/21 03:30:42;;;;;;;;;;;;;;;;;;137144;1273;24194;-84
2023/06/21 03:33:43;;;;;;;;;;;;;;;;;;137304;1273;22517;-84
2023/06/21 03:36:44;;;;;;;;;;;;;;;;;;136787;1273;22612;-81
2023/06/21 03:39:48;;;;;;;;;;;;;;;;;;137437;1270;22518;-83
2023/06/21 03:42:50;;;;;;;;;;;;;;;;;;136887;1261;22475;-84
2023/06/21 03:45:51;;;;;;;;;;;;;;;;;;137308;1273;22556;-82
2023/06/21 03:48:53;;;;;;;;;;;;;;;;;;136985;1273;23337;-82
2023/06/21 03:51:54;;;;;;;;;;;;;;;;;;137157;1273;22603;-84
2023/06/21 03:54:55;;;;;;;;;;;;;;;;;;137228;1273;22470;-82
2023/06/21 03:57:57;;;;;;;;;;;;;;;;;;137413;1273;22537;-85
2023/06/21 04:01:01;;;;;;;;;;;;;;;;;;137221;1273;24879;-84
2023/06/21 04:04:05;;;;;;;;;;;;;;;;;;137413;1273;22485;-84
2023/06/21 04:07:13;;;;;;;;;;;;;;;;;;137125;1270;23063;-84
2023/06/21 04:10:14;;;;;;;;;;;;;;;;;;137524;1273;23223;-80
2023/06/21 04:13:16;;;;;;;;;;;;;;;;;;136627;1259;22625;-83
2023/06/21 04:16:17;;;;;;;;;;;;;;;;;;137147;1273;23115;-82
2023/06/21 04:19:18;;;;;;;;;;;;;;;;;;137486;1273;22565;-85
2023/06/21 04:22:21;;;;;;;;;;;;;;;;;;136894;1258;22540;-83
2023/06/21 04:25:22;;;;;;;;;;;;;;;;;;136714;1273;22731;-84
2023/06/21 04:28:27;;;;;;;;;;;;;;;;;;137065;1273;22911;-82
2023/06/21 04:31:30;;;;;;;;;;;;;;;;;;136700;1273;22566;-83
2023/06/21 04:34:33;;;;;;;;;;;;;;;;;;136854;1273;22521;-84
2023/06/21 04:37:44;;;;;;;;;;;;;;;;;;136442;1273;22567;-84
2023/06/21 04:40:46;;;;;;;;;;;;;;;;;;137501;1273;22593;-84
2023/06/21 04:43:47;;;;;;;;;;;;;;;;;;136967;1273;22492;-78
2023/06/21 04:46:48;;;;;;;;;;;;;;;;;;137514;1273;22535;-78
2023/06/21 04:49:53;;;;;;;;;;;;;;;;;;137363;1273;22671;-83
2023/06/21 04:52:57;;;;;;;;;;;;;;;;;;137285;1270;22530;-84
2023/06/21 04:55:59;;;;;;;;;;;;;;;;;;137342;1273;22553;-84
2023/06/21 04:59:03;;;;;;;;;;;;;;;;;;137200;1273;22860;-82
2023/06/21 05:02:05;;;;;;;;;;;;;;;;;;137610;1273;22409;-85
2023/06/21 05:05:06;;;;;;;;;;;;;;;;;;137582;1273;22327;-84
2023/06/21 05:08:07;;;;;;;;;;;;;;;;;;137526;1273;22477;-85
2023/06/21 05:11:12;;;;;;;;;;;;;;;;;;137547;1273;22714;-82
2023/06/21 05:14:13;;;;;;;;;;;;;;;;;;137528;1273;22323;-82
2023/06/21 05:17:17;;;;;;;;;;;;;;;;;;137502;1268;22482;-84
2023/06/21 05:20:29;;;;;;;;;;;;;;;;;;137013;1273;22521;-83
2023/06/21 05:26:34;;;;;;;;;;;;;;;;;;137265;1273;22502;-82
2023/06/21 05:29:35;;;;;;;;;;;;;;;;;;137543;1273;22446;-82
2023/06/21 05:32:39;;;;;;;;;;;;;;;;;;137538;1273;22330;-83
2023/06/21 05:35:43;;;;;;;;;;;;;;;;;;137527;1273;22561;-84
2023/06/21 05:38:44;;;;;;;;;;;;;;;;;;137550;1273;22310;-83
2023/06/21 05:41:45;;;;;;;;;;;;;;;;;;137553;1273;22262;-84
2023/06/21 05:44:48;;;;;;;;;;;;;;;;;;137600;1273;22808;-84
2023/06/21 05:47:49;;;;;;;;;;;;;;;;;;136595;1273;22510;-81
2023/06/21 05:50:50;;;;;;;;;;;;;;;;;;137591;1273;22327;-81
2023/06/21 05:53:52;;;;;;;;;;;;;;;;;;136855;1273;22675;-82
2023/06/21 05:56:55;;;;;;;;;;;;;;;;;;136934;1273;23433;-83
2023/06/21 05:59:56;;;;;;;;;;;;;;;;;;136875;1273;22508;-82
2023/06/21 06:02:57;;;;;;;;;;;;;;;;;;136795;1273;22646;-81
2023/06/21 06:05:58;;;;;;;;;;;;;;;;;;136822;1273;22965;-85
2023/06/21 06:09:00;;;;;;;;;;;;;;;;;;137236;1273;22698;-83
2023/06/21 06:12:01;;;;;;;;;;;;;;;;;;137439;1273;22503;-83
2023/06/21 06:15:05;;;;;;;;;;;;;;;;;;137447;1273;22525;-82
2023/06/21 06:18:06;;;;;;;;;;;;;;;;;;137542;1273;22366;-80
2023/06/21 06:21:07;;;;;;;;;;;;;;;;;;137077;1273;22538;-82
2023/06/21 06:24:09;;;;;;;;;;;;;;;;;;137238;1273;22531;-80
2023/06/21 06:27:11;;;;;;;;;;;;;;;;;;137031;1273;22510;-81
2023/06/21 06:30:12;;;;;;;;;;;;;;;;;;137049;1273;22570;-83
2023/06/21 06:33:14;;;;;;;;;;;;;;;;;;137484;1273;22594;-82
2023/06/21 06:36:15;;;;;;;;;;;;;;;;;;137497;1273;22921;-83
2023/06/21 06:39:16;;;;;;;;;;;;;;;;;;137251;1273;22505;-85
2023/06/21 06:42:17;;;;;;;;;;;;;;;;;;137491;1273;22509;-82
2023/06/21 06:45:19;;;;;;;;;;;;;;;;;;137378;1273;22874;-82
2023/06/21 06:48:20;;;;;;;;;;;;;;;;;;137319;1273;22535;-83
2023/06/21 06:51:21;;;;;;;;;;;;;;;;;;137500;1273;22376;-83
2023/06/21 06:54:23;;;;;;;;;;;;;;;;;;137578;1273;22297;-84
2023/06/21 06:57:24;;;;;;;;;;;;;;;;;;137421;1273;22536;-84
2023/06/21 07:00:27;;;;;;;;;;;;;;;;;;137529;1273;22435;-85
2023/06/21 07:03:28;;;;;;;;;;;;;;;;;;137514;1273;22600;-85
2023/06/21 07:06:30;;;;;;;;;;;;;;;;;;137155;1273;22595;-84
2023/06/21 07:09:33;;;;;;;;;;;;;;;;;;137331;1273;23501;-85
2023/06/21 07:12:34;;;;;;;;;;;;;;;;;;137538;1273;22423;-85
2023/06/21 07:15:35;;;;;;;;;;;;;;;;;;137532;1273;22346;-84
2023/06/21 07:18:37;;;;;;;;;;;;;;;;;;137524;1273;22565;-83
2023/06/21 07:21:39;;;;;;;;;;;;;;;;;;137566;1273;22337;-85
2023/06/21 07:24:41;;;;;;;;;;;;;;;;;;137481;1273;22507;-85
2023/06/21 07:27:42;;;;;;;;;;;;;;;;;;137576;1273;22399;-82
2023/06/21 07:30:43;;;;;;;;;;;;;;;;;;137532;1273;22359;-81
2023/06/21 07:33:44;;;;;;;;;;;;;;;;;;137593;1273;22296;-86
2023/06/21 07:36:45;;;;;;;;;;;;;;;;;;137561;1273;22286;-84
2023/06/21 07:39:46;;;;;;;;;;;;;;;;;;137521;1273;22581;-87
2023/06/21 07:42:49;;;;;;;;;;;;;;;;;;137368;1273;22536;-84
2023/06/21 07:45:55;;;;;;;;;;;;;;;;;;137425;1273;22553;-87
2023/06/21 07:48:57;;;;;;;;;;;;;;;;;;137284;1273;22507;-85
2023/06/21 07:51:58;;;;;;;;;;;;;;;;;;137511;1273;22491;-85
2023/06/21 07:54:59;;;;;;;;;;;;;;;;;;136966;1273;22488;-80
2023/06/21 07:58:00;;;;;;;;;;;;;;;;;;137517;1273;22382;-80
2023/06/21 08:01:02;;;;;;;;;;;;;;;;;;137501;1273;22520;-84
2023/06/21 08:04:03;;;;;;;;;;;;;;;;;;137552;1273;22398;-81
2023/06/21 08:07:04;;;;;;;;;;;;;;;;;;137531;1273;22711;-85
2023/06/21 08:10:05;;;;;;;;;;;;;;;;;;137506;1273;22869;-85
2023/06/21 08:13:06;;;;;;;;;;;;;;;;;;137496;1273;22729;-86
2023/06/21 08:16:07;;;;;;;;;;;;;;;;;;137531;1272;22340;-85
2023/06/21 08:19:08;;;;;;;;;;;;;;;;;;137492;1268;22474;-86
2023/06/21 08:22:10;;;;;;;;;;;;;;;;;;137525;1273;22748;-85
2023/06/21 08:25:11;;;;;;;;;;;;;;;;;;137565;1273;22416;-82
2023/06/21 08:28:12;;;;;;;;;;;;;;;;;;137592;1273;22426;-82
2023/06/21 08:31:14;;;;;;;;;;;;;;;;;;137522;1273;22759;-82
2023/06/21 08:34:15;;;;;;;;;;;;;;;;;;137546;1273;22313;-82
2023/06/21 08:37:21;;;;;;;;;;;;;;;;;;137572;1273;22777;-83
2023/06/21 08:40:22;;;;;;;;;;;;;;;;;;137492;1273;23246;-82
2023/06/21 08:43:24;;;;;;;;;;;;;;;;;;137582;1273;22353;-81
2023/06/21 08:46:25;;;;;;;;;;;;;;;;;;137504;1273;22738;-85
2023/06/21 08:49:26;;;;;;;;;;;;;;;;;;136872;1273;22496;-84
2023/06/21 08:52:27;;;;;;;;;;;;;;;;;;137567;1273;22522;-84
2023/06/21 08:55:28;;;;;;;;;;;;;;;;;;137502;1273;22281;-86
2023/06/21 08:58:29;;;;;;;;;;;;;;;;;;137530;1273;22395;-85
2023/06/21 09:01:31;;;;;;;;;;;;;;;;;;137518;1273;22532;-86
2023/06/21 09:04:32;;;;;;;;;;;;;;;;;;137527;1273;22356;-86
2023/06/21 09:07:33;;;;;;;;;;;;;;;;;;137547;1273;22341;-84
2023/06/21 09:10:34;;;;;;;;;;;;;;;;;;137545;1273;22285;-86
2023/06/21 09:13:35;;;;;;;;;;;;;;;;;;137580;1273;22519;-86
2023/06/21 09:16:36;;;;;;;;;;;;;;;;;;137381;1273;22498;-83
2023/06/21 09:19:37;;;;;;;;;;;;;;;;;;137521;1270;22594;-83
2023/06/21 09:22:39;;;;;;;;;;;;;;;;;;137497;1273;22531;-80
2023/06/21 09:25:40;;;;;;;;;;;;;;;;;;137553;1273;22402;-83
2023/06/21 09:28:41;;;;;;;;;;;;;;;;;;137506;1273;22823;-83
2023/06/21 09:31:42;;;;;;;;;;;;;;;;;;137556;1273;22418;-84
2023/06/21 09:34:43;;;;;;;;;;;;;;;;;;137537;1273;22340;-84
2023/06/21 09:37:47;;;;;;;;;;;;;;;;;;137536;1273;22322;-87
2023/06/21 09:40:48;;;;;;;;;;;;;;;;;;137526;1273;22328;-83
2023/06/21 09:43:49;;;;;;;;;;;;;;;;;;137487;1273;22395;-80
2023/06/21 09:46:50;;;;;;;;;;;;;;;;;;137515;1273;22359;-84
2023/06/21 09:49:52;;;;;;;;;;;;;;;;;;137529;1273;22317;-83
2023/06/21 09:52:53;;;;;;;;;;;;;;;;;;137477;1273;22854;-83
2023/06/21 09:55:55;;;;;;;;;;;;;;;;;;137491;1273;22494;-83
2023/06/21 09:58:57;;;;;;;;;;;;;;;;;;137553;1273;23073;-83
2023/06/21 10:02:00;;;;;;;;;;;;;;;;;;137330;1273;22522;-84
2023/06/21 10:05:01;;;;;;;;;;;;;;;;;;137026;1273;22531;-84
2023/06/21 10:08:03;;;;;;;;;;;;;;;;;;137175;1273;22998;-83
2023/06/21 10:11:04;;;;;;;;;;;;;;;;;;137307;1273;22513;-83
2023/06/21 10:14:21;;;;;;;;;;;;;;;;;;137108;1273;22938;-83
2023/06/21 10:17:22;;;;;;;;;;;;;;;;;;137370;1273;22539;-83
2023/06/21 10:20:24;;;;;;;;;;;;;;;;;;137324;1273;23292;-83
2023/06/21 10:23:34;;;;;;;;;;;;;;;;;;137558;1273;22322;-82
2023/06/21 10:26:49;;;;;;;;;;;;;;;;;;137496;1273;22917;-82
2023/06/21 10:29:51;;;;;;;;;;;;;;;;;;137515;1273;22768;-81
2023/06/21 10:32:52;;;;;;;;;;;;;;;;;;137518;1273;22391;-82
2023/06/21 10:35:53;;;;;;;;;;;;;;;;;;137510;1273;22346;-85
2023/06/21 10:38:54;;;;;;;;;;;;;;;;;;137510;1273;22368;-83
2023/06/21 10:41:55;;;;;;;;;;;;;;;;;;137525;1273;22366;-82
2023/06/21 10:44:57;;;;;;;;;;;;;;;;;;137461;1273;22350;-83
2023/06/21 10:48:04;;;;;;;;;;;;;;;;;;137257;1273;22496;-83
2023/06/21 10:51:15;;;;;;;;;;;;;;;;;;137522;1273;22719;-84
2023/06/21 10:54:16;;;;;;;;;;;;;;;;;;137638;1270;22601;-81
2023/06/21 10:57:18;;;;;;;;;;;;;;;;;;137540;1273;22576;-85
2023/06/21 11:00:19;;;;;;;;;;;;;;;;;;137329;1273;22557;-83
2023/06/21 11:03:25;;;;;;;;;;;;;;;;;;137497;1267;22909;-84
2023/06/21 11:06:28;;;;;;;;;;;;;;;;;;137345;1273;23478;-84
2023/06/21 11:09:29;;;;;;;;;;;;;;;;;;137523;1273;22386;-83
2023/06/21 11:12:33;;;;;;;;;;;;;;;;;;137497;1273;22901;-83
2023/06/21 11:15:35;;;;;;;;;;;;;;;;;;137511;1273;22349;-83
2023/06/21 11:18:36;;;;;;;;;;;;;;;;;;137406;1267;22445;-84
2023/06/21 11:21:40;;;;;;;;;;;;;;;;;;137496;1273;22741;-84
2023/06/21 11:24:44;;;;;;;;;;;;;;;;;;137500;1273;22853;-84
2023/06/21 11:27:47;;;;;;;;;;;;;;;;;;137416;1273;22751;-85
2023/06/21 11:30:48;;;;;;;;;;;;;;;;;;137038;1273;22525;-83
2023/06/21 11:33:50;;;;;;;;;;;;;;;;;;136542;1273;22525;-83
2023/06/21 12:10:12;;;;;;;;;;;;;;;;;;133675;1306;544455;-82
2023/06/21 12:13:13;;;;;;;;;;;;;;;;;;136595;1285;22580;-83
2023/06/21 12:16:14;;;;;;;;;;;;;;;;;;136564;1285;22341;-82
2023/06/21 12:19:16;;;;;;;;;;;;;;;;;;136602;1282;22344;-83
2023/06/21 12:22:17;;;;;;;;;;;;;;;;;;136538;1283;176743;-83
2023/06/21 12:25:19;;;;;;;;;;;;;;;;;;136772;1272;22291;-81
2023/06/21 12:28:20;;;;;;;;;;;;;;;;;;136732;1283;22318;-82
2023/06/21 12:31:21;;;;;;;;;;;;;;;;;;136784;1283;22357;-82
2023/06/21 12:34:22;;;;;;;;;;;;;;;;;;136775;1283;22317;-81
2023/06/21 12:37:23;;;;;;;;;;;;;;;;;;136785;1282;22535;-87
2023/06/21 12:40:24;;;;;;;;;;;;;;;;;;136788;1283;22335;-83
2023/06/21 12:43:25;;;;;;;;;;;;;;;;;;136767;1283;22284;-81
2023/06/21 12:46:26;;;;;;;;;;;;;;;;;;136791;1283;22341;-82
2023/06/21 12:49:28;;;;;;;;;;;;;;;;;;136384;1272;22932;-83
2023/06/21 12:52:29;;;;;;;;;;;;;;;;;;136322;1271;22575;-83
2023/06/21 12:55:30;;;;;;;;;;;;;;;;;;136687;1283;22502;-83
2023/06/21 12:58:31;;;;;;;;;;;;;;;;;;136718;1283;22850;-82
2023/06/21 13:01:32;;;;;;;;;;;;;;;;;;136631;1283;22519;-83
2023/06/21 13:04:34;;;;;;;;;;;;;;;;;;136703;1283;22817;-83
2023/06/21 13:07:35;;;;;;;;;;;;;;;;;;136676;1283;22409;-83
2023/06/21 13:10:36;;;;;;;;;;;;;;;;;;136678;1283;22283;-83
2023/06/21 13:13:37;;;;;;;;;;;;;;;;;;137383;1266;22754;-83
2023/06/21 13:16:38;;;;;;;;;;;;;;;;;;137403;1270;22295;-84
2023/06/21 13:19:39;;;;;;;;;;;;;;;;;;137285;1276;22347;-82
2023/06/21 13:22:40;;;;;;;;;;;;;;;;;;137355;1275;22293;-83
2023/06/21 13:25:41;;;;;;;;;;;;;;;;;;137317;1275;22323;-82
2023/06/21 13:28:42;;;;;;;;;;;;;;;;;;137357;1275;22459;-80
2023/06/21 13:31:43;;;;;;;;;;;;;;;;;;137362;1272;22288;-81
2023/06/21 13:34:44;;;;;;;;;;;;;;;;;;137711;1272;22425;-80
2023/06/21 13:37:46;;;;;;;;;;;;;;;;;;137693;1272;22667;-84
2023/06/21 13:40:47;;;;;;;;;;;;;;;;;;137770;1272;22328;-88
2023/06/21 13:43:48;;;;;;;;;;;;;;;;;;137737;1272;22329;-85
2023/06/21 13:46:49;;;;;;;;;;;;;;;;;;137801;1272;22343;-86
2023/06/21 13:49:50;;;;;;;;;;;;;;;;;;137397;1272;22517;-87
2023/06/21 13:52:51;;;;;;;;;;;;;;;;;;137696;1272;22930;-81
2023/06/21 13:55:53;;;;;;;;;;;;;;;;;;137760;1271;22280;-83
2023/06/21 13:58:54;;;;;;;;;;;;;;;;;;137596;1272;22488;-80
2023/06/21 14:01:55;;;;;;;;;;;;;;;;;;137473;1272;22507;-81
2023/06/21 14:04:56;;;;;;;;;;;;;;;;;;137495;1272;22563;-81
2023/06/21 14:07:57;;;;;;;;;;;;;;;;;;137773;1272;22939;-81
2023/06/21 14:10:58;;;;;;;;;;;;;;;;;;137649;1272;22488;-82
2023/06/21 14:13:59;;;;;;;;;;;;;;;;;;137764;1272;22273;-82
2023/06/21 14:17:00;;;;;;;;;;;;;;;;;;137775;1272;22344;-82
2023/06/21 14:20:06;;;;;;;;;;;;;;;;;;137708;1272;22781;-81
2023/06/21 14:23:07;;;;;;;;;;;;;;;;;;137765;1272;22328;-84
2023/06/21 14:26:08;;;;;;;;;;;;;;;;;;137753;1272;22307;-82
2023/06/21 14:29:09;;;;;;;;;;;;;;;;;;136992;1271;22548;-84
2023/06/21 14:32:10;;;;;;;;;;;;;;;;;;137618;1271;22537;-84
2023/06/21 14:35:11;;;;;;;;;;;;;;;;;;137765;1271;22999;-83
2023/06/21 14:38:17;;;;;;;;;;;;;;;;;;137689;1271;23006;-82
2023/06/21 14:41:18;;;;;;;;;;;;;;;;;;137766;1271;22352;-82
2023/06/21 14:44:19;;;;;;;;;;;;;;;;;;137753;1271;22434;-83
2023/06/21 14:47:20;;;;;;;;;;;;;;;;;;137849;1271;22398;-83
2023/06/21 14:50:22;;;;;;;;;;;;;;;;;;137893;1271;22364;-83
2023/06/21 14:53:23;;;;;;;;;;;;;;;;;;137768;1271;22873;-83
2023/06/21 14:56:24;;;;;;;;;;;;;;;;;;137766;1271;22574;-84
2023/06/21 14:59:25;;;;;;;;;;;;;;;;;;137752;1271;22910;-83
2023/06/21 15:02:26;;;;;;;;;;;;;;;;;;137769;1271;22436;-83
2023/06/21 15:05:27;;;;;;;;;;;;;;;;;;137690;1271;22487;-82
2023/06/21 15:08:29;;;;;;;;;;;;;;;;;;137784;1271;22506;-82
2023/06/21 15:11:31;;;;;;;;;;;;;;;;;;137829;1271;22486;-82
2023/06/21 15:14:32;;;;;;;;;;;;;;;;;;137790;1271;22549;-81
2023/06/21 15:17:33;;;;;;;;;;;;;;;;;;137868;1271;22969;-83
2023/06/21 15:20:34;;;;;;;;;;;;;;;;;;137591;1271;22527;-81
2023/06/21 15:23:35;;;;;;;;;;;;;;;;;;137715;1271;22993;-82
2023/06/21 15:26:36;;;;;;;;;;;;;;;;;;137752;1271;22546;-82
2023/06/21 15:29:37;;;;;;;;;;;;;;;;;;137797;1271;22865;-84
2023/06/21 15:32:38;;;;;;;;;;;;;;;;;;137739;1272;25177;-82
2023/06/21 15:35:39;;;;;;;;;;;;;;;;;;137716;1271;22493;-82
2023/06/21 15:38:41;;;;;;;;;;;;;;;;;;137678;1271;22523;-82
2023/06/21 15:41:42;;;;;;;;;;;;;;;;;;137693;1271;22491;-82
2023/06/21 15:44:43;;;;;;;;;;;;;;;;;;137531;1271;22592;-81
2023/06/21 15:47:44;;;;;;;;;;;;;;;;;;137626;1271;22476;-82
2023/06/21 15:50:47;;;;;;;;;;;;;;;;;;137750;1270;22531;-83
2023/06/21 15:53:48;;;;;;;;;;;;;;;;;;137810;1271;22596;-82
2023/06/21 15:56:51;;;;;;;;;;;;;;;;;;137718;1271;22537;-82
2023/06/21 15:59:52;;;;;;;;;;;;;;;;;;137860;1271;22565;-84
2023/06/21 16:02:54;;;;;;;;;;;;;;;;;;137834;1271;22522;-82
2023/06/21 16:05:56;;;;;;;;;;;;;;;;;;137825;1271;22570;-81
2023/06/21 16:08:58;;;;;;;;;;;;;;;;;;137843;1271;22492;-82
2023/06/21 16:11:59;;;;;;;;;;;;;;;;;;137724;1271;22954;-84
2023/06/21 16:15:00;;;;;;;;;;;;;;;;;;137715;1271;22491;-83
2023/06/21 16:18:01;;;;;;;;;;;;;;;;;;137820;1271;23065;-82
2023/06/21 16:21:02;;;;;;;;;;;;;;;;;;137820;1271;22590;-83
2023/06/21 16:24:03;;;;;;;;;;;;;;;;;;137887;1271;22331;-82
2023/06/21 16:27:04;;;;;;;;;;;;;;;;;;137743;1271;22499;-81
2023/06/21 16:30:05;;;;;;;;;;;;;;;;;;137775;1260;22535;-82
2023/06/21 16:33:06;;;;;;;;;;;;;;;;;;137837;1271;23705;-83
2023/06/21 16:36:08;;;;;;;;;;;;;;;;;;137752;1271;22930;-83
2023/06/21 16:39:10;;;;;;;;;;;;;;;;;;137855;1271;22386;-82
2023/06/21 16:42:11;;;;;;;;;;;;;;;;;;137801;1271;22273;-83
2023/06/21 16:45:12;;;;;;;;;;;;;;;;;;137846;1271;22325;-82
2023/06/21 16:48:13;;;;;;;;;;;;;;;;;;137744;1271;22492;-83
2023/06/21 16:51:15;;;;;;;;;;;;;;;;;;137825;1271;22579;-82
2023/06/21 16:54:16;;;;;;;;;;;;;;;;;;137683;1271;22538;-84
2023/06/21 16:57:17;;;;;;;;;;;;;;;;;;137794;1271;22544;-84
2023/06/21 17:00:18;;;;;;;;;;;;;;;;;;137835;1271;22324;-83
2023/06/21 17:03:19;;;;;;;;;;;;;;;;;;137742;1271;22641;-82
2023/06/21 17:06:23;;;;;;;;;;;;;;;;;;137872;1271;22668;-83
2023/06/21 17:09:25;;;;;;;;;;;;;;;;;;137835;1271;22388;-83
2023/06/21 17:12:26;;;;;;;;;;;;;;;;;;137727;1271;22506;-82
2023/06/21 17:15:30;;;;;;;;;;;;;;;;;;137853;1271;22491;-83
2023/06/21 17:18:31;;;;;;;;;;;;;;;;;;137812;1271;22489;-83
2023/06/21 17:21:32;;;;;;;;;;;;;;;;;;137739;1272;22478;-83
2023/06/21 17:24:33;;;;;;;;;;;;;;;;;;137873;1268;22860;-83
2023/06/21 17:27:34;;;;;;;;;;;;;;;;;;137823;1271;22543;-83
2023/06/21 17:30:35;;;;;;;;;;;;;;;;;;137807;1271;22880;-84
2023/06/21 17:33:36;;;;;;;;;;;;;;;;;;137826;1271;22511;-85
2023/06/21 17:36:37;;;;;;;;;;;;;;;;;;137651;1271;22863;-83
2023/06/21 17:39:38;;;;;;;;;;;;;;;;;;137682;1271;22533;-83
2023/06/21 17:42:40;;;;;;;;;;;;;;;;;;137814;1271;22538;-82
2023/06/21 17:45:41;;;;;;;;;;;;;;;;;;137892;1268;22296;-82
2023/06/21 17:48:42;;;;;;;;;;;;;;;;;;137905;1271;22281;-82
2023/06/21 17:51:43;;;;;;;;;;;;;;;;;;137754;1271;22550;-81
2023/06/21 17:54:44;;;;;;;;;;;;;;;;;;137924;1271;22395;-81
2023/06/21 17:57:45;;;;;;;;;;;;;;;;;;137740;1271;22484;-81
2023/06/21 18:00:47;;;;;;;;;;;;;;;;;;137608;1271;22564;-82
2023/06/21 18:03:48;;;;;;;;;;;;;;;;;;137669;1260;22555;-82
2023/06/21 18:06:49;;;;;;;;;;;;;;;;;;137559;1271;22531;-83
2023/06/21 18:09:51;;;;;;;;;;;;;;;;;;137234;1271;22601;-82
2023/06/21 18:12:52;;;;;;;;;;;;;;;;;;137574;1271;22498;-82
2023/06/21 18:15:53;;;;;;;;;;;;;;;;;;137281;1268;22500;-83
2023/06/21 18:18:55;;;;;;;;;;;;;;;;;;137814;1271;23161;-82
2023/06/21 18:21:56;;;;;;;;;;;;;;;;;;137794;1271;22511;-83
2023/06/21 18:24:58;;;;;;;;;;;;;;;;;;137918;1271;22321;-83
2023/06/21 18:27:59;;;;;;;;;;;;;;;;;;137799;1272;22600;-82
2023/06/21 18:31:00;;;;;;;;;;;;;;;;;;137740;1271;22558;-82
2023/06/21 18:34:01;;;;;;;;;;;;;;;;;;137671;1271;22456;-81
2023/06/21 18:37:02;;;;;;;;;;;;;;;;;;137655;1271;22522;-82
2023/06/21 18:40:03;;;;;;;;;;;;;;;;;;137946;1271;22357;-82
2023/06/21 18:43:04;;;;;;;;;;;;;;;;;;137643;1272;22593;-82
2023/06/21 18:46:06;;;;;;;;;;;;;;;;;;137952;1271;22410;-82
2023/06/21 18:49:07;;;;;;;;;;;;;;;;;;137956;1271;22283;-81
2023/06/21 18:52:08;;;;;;;;;;;;;;;;;;137865;1271;22504;-81
2023/06/21 18:55:11;;;;;;;;;;;;;;;;;;137692;1271;22502;-80
2023/06/21 18:58:12;;;;;;;;;;;;;;;;;;137858;1271;22557;-81
2023/06/21 19:01:13;;;;;;;;;;;;;;;;;;137820;1271;22687;-80
2023/06/21 19:04:14;;;;;;;;;;;;;;;;;;137829;1271;22523;-80
2023/06/21 19:07:16;;;;;;;;;;;;;;;;;;137870;1271;22457;-80
2023/06/21 19:10:17;;;;;;;;;;;;;;;;;;137870;1271;22572;-81
2023/06/21 19:13:21;;;;;;;;;;;;;;;;;;137741;1271;22593;-82
2023/06/21 19:16:23;;;;;;;;;;;;;;;;;;137788;1271;22533;-82
2023/06/21 19:19:24;;;;;;;;;;;;;;;;;;137853;1271;22887;-82
2023/06/21 19:22:25;;;;;;;;;;;;;;;;;;137748;1271;22501;-82
2023/06/21 19:25:26;;;;;;;;;;;;;;;;;;137757;1271;23014;-82
2023/06/21 19:28:27;;;;;;;;;;;;;;;;;;137849;1271;22827;-81
2023/06/21 19:31:28;;;;;;;;;;;;;;;;;;137846;1271;22810;-82
2023/06/21 19:34:29;;;;;;;;;;;;;;;;;;137849;1271;22582;-81
2023/06/21 19:37:31;;;;;;;;;;;;;;;;;;137754;1271;23091;-81
2023/06/21 19:40:32;;;;;;;;;;;;;;;;;;137866;1271;22263;-81
2023/06/21 19:43:33;;;;;;;;;;;;;;;;;;137879;1271;23009;-82
2023/06/21 19:46:34;;;;;;;;;;;;;;;;;;137786;1271;22602;-83
2023/06/21 19:49:35;;;;;;;;;;;;;;;;;;137765;1271;22936;-82
2023/06/21 19:52:36;;;;;;;;;;;;;;;;;;137802;1272;22949;-81
2023/06/21 19:55:38;;;;;;;;;;;;;;;;;;137857;1271;22317;-82
2023/06/21 19:58:39;;;;;;;;;;;;;;;;;;137863;1271;22302;-81
2023/06/21 20:01:40;;;;;;;;;;;;;;;;;;137820;1271;22279;-82
2023/06/21 20:04:41;;;;;;;;;;;;;;;;;;137901;1271;22350;-84
2023/06/21 20:07:42;;;;;;;;;;;;;;;;;;137783;1272;22494;-83
2023/06/21 20:10:44;;;;;;;;;;;;;;;;;;137816;1272;22384;-83
2023/06/21 20:13:45;;;;;;;;;;;;;;;;;;137715;1271;22466;-84
2023/06/21 20:16:46;;;;;;;;;;;;;;;;;;137882;1271;22257;-84
2023/06/21 20:19:47;;;;;;;;;;;;;;;;;;137867;1269;22331;-84
2023/06/21 20:22:48;;;;;;;;;;;;;;;;;;137826;1271;22336;-84
2023/06/21 20:25:49;;;;;;;;;;;;;;;;;;137840;1271;22326;-83
2023/06/21 20:28:50;;;;;;;;;;;;;;;;;;137786;1271;22288;-82
2023/06/21 20:31:52;;;;;;;;;;;;;;;;;;137842;1272;22395;-84
2023/06/21 20:34:53;;;;;;;;;;;;;;;;;;137886;1271;22356;-83
2023/06/21 20:37:54;;;;;;;;;;;;;;;;;;137883;1271;22412;-83
2023/06/21 20:40:59;;;;;;;;;;;;;;;;;;137841;1264;22335;-82
2023/06/21 20:44:01;;;;;;;;;;;;;;;;;;137884;1269;22352;-83
2023/06/21 20:47:05;;;;;;;;;;;;;;;;;;137856;1271;22582;-84
2023/06/21 20:50:10;;;;;;;;;;;;;;;;;;137557;1271;22520;-84
2023/06/21 20:53:11;;;;;;;;;;;;;;;;;;137927;1271;22779;-84
2023/06/21 20:56:12;;;;;;;;;;;;;;;;;;137787;1271;22491;-83